sensor_id;sensor_type;location;lat;lon;timestamp;P1;durP1;ratioP1;P2;durP2;ratioP2
51174;SDS011;37240;50.104;20.010;2022-07-21T00:04:25;3.70;;;3.40;;
51174;SDS011;37240;50.104;20.010;2022-07-21T00:09:25;4.28;;;3.83;;
51174;SDS011;37240;50.104;20.010;2022-07-21T00:14:26;4.43;;;3.92;;
51174;SDS011;37240;50.104;20.010;2022-07-21T00:19:26;8.85;;;3.92;;
51174;SDS011;37240;50.104;20.010;2022-07-21T00:24:27;5.82;;;3.85;;
51174;SDS011;37240;50.104;20.010;2022-07-21T00:29:27;4.50;;;3.95;;
51174;SDS011;37240;50.104;20.010;2022-07-21T00:34:28;5.90;;;3.80;;
51174;SDS011;37240;50.104;20.010;2022-07-21T00:39:28;4.28;;;3.47;;
51174;SDS011;37240;50.104;20.010;2022-07-21T00:44:29;5.03;;;3.35;;
51174;SDS011;37240;50.104;20.010;2022-07-21T00:49:29;7.13;;;3.80;;
51174;SDS011;37240;50.104;20.010;2022-07-21T00:54:30;9.48;;;3.63;;
51174;SDS011;37240;50.104;20.010;2022-07-21T00:59:31;6.85;;;4.28;;
51174;SDS011;37240;50.104;20.010;2022-07-21T01:04:31;7.10;;;4.13;;
51174;SDS011;37240;50.104;20.010;2022-07-21T01:09:32;5.35;;;3.92;;
51174;SDS011;37240;50.104;20.010;2022-07-21T01:14:34;3.53;;;3.13;;
51174;SDS011;37240;50.104;20.010;2022-07-21T01:19:34;16.27;;;4.10;;
51174;SDS011;37240;50.104;20.010;2022-07-21T01:24:35;4.00;;;3.60;;
51174;SDS011;37240;50.104;20.010;2022-07-21T01:29:36;6.72;;;3.97;;
51174;SDS011;37240;50.104;20.010;2022-07-21T01:34:36;5.35;;;3.50;;
51174;SDS011;37240;50.104;20.010;2022-07-21T01:39:36;4.13;;;3.35;;
51174;SDS011;37240;50.104;20.010;2022-07-21T01:44:37;8.18;;;3.83;;
51174;SDS011;37240;50.104;20.010;2022-07-21T01:49:37;5.90;;;3.70;;
51174;SDS011;37240;50.104;20.010;2022-07-21T01:54:38;4.13;;;3.83;;
51174;SDS011;37240;50.104;20.010;2022-07-21T01:59:38;8.32;;;4.38;;
51174;SDS011;37240;50.104;20.010;2022-07-21T02:04:39;4.03;;;3.60;;
51174;SDS011;37240;50.104;20.010;2022-07-21T02:09:40;4.90;;;4.40;;
51174;SDS011;37240;50.104;20.010;2022-07-21T02:14:40;3.92;;;3.47;;
51174;SDS011;37240;50.104;20.010;2022-07-21T02:19:41;6.65;;;3.78;;
51174;SDS011;37240;50.104;20.010;2022-07-21T02:24:41;5.00;;;3.95;;
51174;SDS011;37240;50.104;20.010;2022-07-21T02:29:42;5.95;;;3.47;;
51174;SDS011;37240;50.104;20.010;2022-07-21T02:34:42;6.47;;;3.65;;
51174;SDS011;37240;50.104;20.010;2022-07-21T02:39:43;4.30;;;3.47;;
51174;SDS011;37240;50.104;20.010;2022-07-21T02:44:43;16.05;;;11.18;;
51174;SDS011;37240;50.104;20.010;2022-07-21T02:49:44;23.50;;;14.68;;
51174;SDS011;37240;50.104;20.010;2022-07-21T02:54:44;11.98;;;8.05;;
51174;SDS011;37240;50.104;20.010;2022-07-21T02:59:45;10.00;;;5.85;;
51174;SDS011;37240;50.104;20.010;2022-07-21T03:04:45;9.45;;;4.78;;
51174;SDS011;37240;50.104;20.010;2022-07-21T03:09:46;4.97;;;3.63;;
51174;SDS011;37240;50.104;20.010;2022-07-21T03:14:46;7.00;;;4.22;;
51174;SDS011;37240;50.104;20.010;2022-07-21T03:19:47;5.70;;;3.30;;
51174;SDS011;37240;50.104;20.010;2022-07-21T03:24:47;5.78;;;3.83;;
51174;SDS011;37240;50.104;20.010;2022-07-21T03:29:48;4.78;;;3.70;;
51174;SDS011;37240;50.104;20.010;2022-07-21T03:34:48;4.82;;;3.55;;
51174;SDS011;37240;50.104;20.010;2022-07-21T03:39:49;5.65;;;4.03;;
51174;SDS011;37240;50.104;20.010;2022-07-21T03:44:49;8.05;;;4.22;;
51174;SDS011;37240;50.104;20.010;2022-07-21T03:49:50;6.20;;;3.97;;
51174;SDS011;37240;50.104;20.010;2022-07-21T03:54:50;4.32;;;3.92;;
51174;SDS011;37240;50.104;20.010;2022-07-21T03:59:51;4.60;;;3.97;;
51174;SDS011;37240;50.104;20.010;2022-07-21T04:04:51;9.90;;;4.90;;
51174;SDS011;37240;50.104;20.010;2022-07-21T04:09:52;6.28;;;4.20;;
51174;SDS011;37240;50.104;20.010;2022-07-21T04:14:52;9.13;;;4.55;;
51174;SDS011;37240;50.104;20.010;2022-07-21T04:19:53;10.63;;;4.32;;
51174;SDS011;37240;50.104;20.010;2022-07-21T04:24:54;16.25;;;4.65;;
51174;SDS011;37240;50.104;20.010;2022-07-21T04:29:55;4.43;;;4.03;;
51174;SDS011;37240;50.104;20.010;2022-07-21T04:34:55;15.23;;;4.53;;
51174;SDS011;37240;50.104;20.010;2022-07-21T04:39:56;10.98;;;5.07;;
51174;SDS011;37240;50.104;20.010;2022-07-21T04:44:56;16.02;;;5.55;;
51174;SDS011;37240;50.104;20.010;2022-07-21T04:49:57;14.20;;;5.30;;
51174;SDS011;37240;50.104;20.010;2022-07-21T04:54:57;7.07;;;5.13;;
51174;SDS011;37240;50.104;20.010;2022-07-21T04:59:58;5.55;;;4.95;;
51174;SDS011;37240;50.104;20.010;2022-07-21T05:04:59;6.45;;;4.35;;
51174;SDS011;37240;50.104;20.010;2022-07-21T05:09:59;9.73;;;4.88;;
51174;SDS011;37240;50.104;20.010;2022-07-21T05:15:04;9.57;;;4.97;;
51174;SDS011;37240;50.104;20.010;2022-07-21T05:20:06;17.30;;;4.28;;
51174;SDS011;37240;50.104;20.010;2022-07-21T05:25:07;19.40;;;5.28;;
51174;SDS011;37240;50.104;20.010;2022-07-21T05:30:08;30.60;;;7.63;;
51174;SDS011;37240;50.104;20.010;2022-07-21T05:35:09;32.22;;;7.10;;
51174;SDS011;37240;50.104;20.010;2022-07-21T05:40:10;34.00;;;7.40;;
51174;SDS011;37240;50.104;20.010;2022-07-21T05:45:12;22.83;;;8.02;;
51174;SDS011;37240;50.104;20.010;2022-07-21T05:50:13;24.50;;;6.75;;
51174;SDS011;37240;50.104;20.010;2022-07-21T05:55:13;21.42;;;5.78;;
51174;SDS011;37240;50.104;20.010;2022-07-21T06:00:14;17.33;;;5.70;;
51174;SDS011;37240;50.104;20.010;2022-07-21T06:05:15;17.23;;;6.65;;
51174;SDS011;37240;50.104;20.010;2022-07-21T06:10:16;20.15;;;5.78;;
51174;SDS011;37240;50.104;20.010;2022-07-21T06:15:16;6.45;;;4.35;;
51174;SDS011;37240;50.104;20.010;2022-07-21T06:20:17;16.83;;;5.23;;
51174;SDS011;37240;50.104;20.010;2022-07-21T06:25:17;32.03;;;5.15;;
51174;SDS011;37240;50.104;20.010;2022-07-21T06:30:18;15.80;;;5.03;;
51174;SDS011;37240;50.104;20.010;2022-07-21T06:35:18;16.92;;;5.07;;
51174;SDS011;37240;50.104;20.010;2022-07-21T06:40:19;13.23;;;4.25;;
51174;SDS011;37240;50.104;20.010;2022-07-21T06:45:20;10.73;;;4.93;;
51174;SDS011;37240;50.104;20.010;2022-07-21T06:50:20;6.93;;;4.60;;
51174;SDS011;37240;50.104;20.010;2022-07-21T06:55:21;4.20;;;3.90;;
51174;SDS011;37240;50.104;20.010;2022-07-21T07:00:21;7.90;;;4.45;;
51174;SDS011;37240;50.104;20.010;2022-07-21T07:05:22;10.68;;;4.72;;
51174;SDS011;37240;50.104;20.010;2022-07-21T07:10:23;17.52;;;5.65;;
51174;SDS011;37240;50.104;20.010;2022-07-21T07:15:23;12.57;;;4.82;;
51174;SDS011;37240;50.104;20.010;2022-07-21T07:20:24;10.82;;;5.15;;
51174;SDS011;37240;50.104;20.010;2022-07-21T07:25:25;4.57;;;4.18;;
51174;SDS011;37240;50.104;20.010;2022-07-21T07:30:25;17.60;;;5.55;;
51174;SDS011;37240;50.104;20.010;2022-07-21T07:35:26;15.23;;;4.93;;
51174;SDS011;37240;50.104;20.010;2022-07-21T07:40:27;8.73;;;4.93;;
51174;SDS011;37240;50.104;20.010;2022-07-21T07:45:27;9.52;;;4.28;;
51174;SDS011;37240;50.104;20.010;2022-07-21T07:50:28;11.68;;;5.15;;
51174;SDS011;37240;50.104;20.010;2022-07-21T07:55:29;13.23;;;6.15;;
51174;SDS011;37240;50.104;20.010;2022-07-21T08:00:29;10.05;;;4.53;;
51174;SDS011;37240;50.104;20.010;2022-07-21T08:05:30;8.13;;;4.03;;
51174;SDS011;37240;50.104;20.010;2022-07-21T08:10:31;6.40;;;4.22;;
51174;SDS011;37240;50.104;20.010;2022-07-21T08:15:31;8.40;;;4.38;;
51174;SDS011;37240;50.104;20.010;2022-07-21T08:20:32;12.75;;;4.40;;
51174;SDS011;37240;50.104;20.010;2022-07-21T08:25:34;5.53;;;3.95;;
51174;SDS011;37240;50.104;20.010;2022-07-21T08:30:34;12.40;;;4.25;;
51174;SDS011;37240;50.104;20.010;2022-07-21T08:35:36;10.05;;;4.28;;
51174;SDS011;37240;50.104;20.010;2022-07-21T08:40:37;15.32;;;4.45;;
51174;SDS011;37240;50.104;20.010;2022-07-21T08:45:40;20.83;;;6.00;;
51174;SDS011;37240;50.104;20.010;2022-07-21T08:50:41;15.30;;;3.60;;
51174;SDS011;37240;50.104;20.010;2022-07-21T08:55:41;15.53;;;4.83;;
51174;SDS011;37240;50.104;20.010;2022-07-21T09:00:43;19.35;;;4.45;;
51174;SDS011;37240;50.104;20.010;2022-07-21T09:16:14;27.65;;;6.32;;
51174;SDS011;37240;50.104;20.010;2022-07-21T09:21:31;15.65;;;4.03;;
51174;SDS011;37240;50.104;20.010;2022-07-21T09:26:42;10.77;;;3.75;;
51174;SDS011;37240;50.104;20.010;2022-07-21T09:31:57;4.57;;;3.72;;
51174;SDS011;37240;50.104;20.010;2022-07-21T09:37:11;17.75;;;3.55;;
51174;SDS011;37240;50.104;20.010;2022-07-21T09:42:50;9.25;;;3.72;;
51174;SDS011;37240;50.104;20.010;2022-07-21T09:47:40;47.65;;;5.68;;
51174;SDS011;37240;50.104;20.010;2022-07-21T09:52:43;12.55;;;3.63;;
51174;SDS011;37240;50.104;20.010;2022-07-21T09:57:45;20.45;;;5.70;;
51174;SDS011;37240;50.104;20.010;2022-07-21T10:02:46;21.75;;;4.70;;
51174;SDS011;37240;50.104;20.010;2022-07-21T10:07:48;19.85;;;4.32;;
51174;SDS011;37240;50.104;20.010;2022-07-21T10:12:49;5.00;;;3.75;;
51174;SDS011;37240;50.104;20.010;2022-07-21T10:17:50;9.35;;;4.10;;
51174;SDS011;37240;50.104;20.010;2022-07-21T10:28:33;14.82;;;4.03;;
51174;SDS011;37240;50.104;20.010;2022-07-21T10:38:46;15.52;;;4.05;;
51174;SDS011;37240;50.104;20.010;2022-07-21T10:43:47;8.43;;;3.50;;
51174;SDS011;37240;50.104;20.010;2022-07-21T10:48:48;10.07;;;3.97;;
51174;SDS011;37240;50.104;20.010;2022-07-21T10:53:55;4.30;;;2.85;;
51174;SDS011;37240;50.104;20.010;2022-07-21T10:59:16;6.30;;;3.38;;
51174;SDS011;37240;50.104;20.010;2022-07-21T11:04:16;6.30;;;2.88;;
51174;SDS011;37240;50.104;20.010;2022-07-21T11:09:17;11.18;;;3.60;;
51174;SDS011;37240;50.104;20.010;2022-07-21T11:14:18;13.27;;;3.47;;
51174;SDS011;37240;50.104;20.010;2022-07-21T11:19:33;3.90;;;3.58;;
51174;SDS011;37240;50.104;20.010;2022-07-21T11:24:33;4.50;;;2.38;;
51174;SDS011;37240;50.104;20.010;2022-07-21T11:29:34;3.45;;;2.50;;
51174;SDS011;37240;50.104;20.010;2022-07-21T11:34:38;14.70;;;3.90;;
51174;SDS011;37240;50.104;20.010;2022-07-21T11:39:43;5.32;;;2.72;;
51174;SDS011;37240;50.104;20.010;2022-07-21T11:44:44;23.02;;;3.70;;
51174;SDS011;37240;50.104;20.010;2022-07-21T11:49:44;6.30;;;3.00;;
51174;SDS011;37240;50.104;20.010;2022-07-21T11:54:49;8.98;;;3.35;;
51174;SDS011;37240;50.104;20.010;2022-07-21T11:59:52;9.38;;;3.47;;
51174;SDS011;37240;50.104;20.010;2022-07-21T12:04:58;6.30;;;3.33;;
51174;SDS011;37240;50.104;20.010;2022-07-21T12:10:23;5.47;;;2.67;;
51174;SDS011;37240;50.104;20.010;2022-07-21T12:15:26;4.82;;;2.50;;
51174;SDS011;37240;50.104;20.010;2022-07-21T12:20:30;8.27;;;2.90;;
51174;SDS011;37240;50.104;20.010;2022-07-21T12:25:42;12.10;;;3.35;;
51174;SDS011;37240;50.104;20.010;2022-07-21T12:30:47;8.00;;;2.80;;
51174;SDS011;37240;50.104;20.010;2022-07-21T12:36:06;6.75;;;3.15;;
51174;SDS011;37240;50.104;20.010;2022-07-21T12:41:08;14.18;;;2.85;;
51174;SDS011;37240;50.104;20.010;2022-07-21T12:46:12;11.57;;;2.60;;
51174;SDS011;37240;50.104;20.010;2022-07-21T12:56:20;7.20;;;2.43;;
51174;SDS011;37240;50.104;20.010;2022-07-21T13:01:23;2.75;;;2.03;;
51174;SDS011;37240;50.104;20.010;2022-07-21T13:06:26;2.97;;;1.95;;
51174;SDS011;37240;50.104;20.010;2022-07-21T13:11:30;6.70;;;2.25;;
51174;SDS011;37240;50.104;20.010;2022-07-21T13:16:30;2.30;;;2.08;;
51174;SDS011;37240;50.104;20.010;2022-07-21T13:21:31;9.00;;;2.50;;
51174;SDS011;37240;50.104;20.010;2022-07-21T13:26:31;8.40;;;2.70;;
51174;SDS011;37240;50.104;20.010;2022-07-21T13:31:32;14.75;;;2.65;;
51174;SDS011;37240;50.104;20.010;2022-07-21T13:36:33;13.73;;;2.65;;
51174;SDS011;37240;50.104;20.010;2022-07-21T13:41:34;9.10;;;2.55;;
51174;SDS011;37240;50.104;20.010;2022-07-21T13:46:35;12.30;;;1.95;;
51174;SDS011;37240;50.104;20.010;2022-07-21T13:51:35;49.97;;;5.97;;
51174;SDS011;37240;50.104;20.010;2022-07-21T13:56:36;14.18;;;2.30;;
51174;SDS011;37240;50.104;20.010;2022-07-21T14:01:36;11.87;;;2.57;;
51174;SDS011;37240;50.104;20.010;2022-07-21T14:06:37;3.20;;;1.70;;
51174;SDS011;37240;50.104;20.010;2022-07-21T14:11:38;4.65;;;1.80;;
51174;SDS011;37240;50.104;20.010;2022-07-21T14:16:38;8.50;;;1.92;;
51174;SDS011;37240;50.104;20.010;2022-07-21T14:21:39;6.85;;;1.88;;
51174;SDS011;37240;50.104;20.010;2022-07-21T14:26:39;9.52;;;2.05;;
51174;SDS011;37240;50.104;20.010;2022-07-21T14:31:40;6.03;;;1.45;;
51174;SDS011;37240;50.104;20.010;2022-07-21T14:36:41;7.82;;;2.03;;
51174;SDS011;37240;50.104;20.010;2022-07-21T14:41:41;3.30;;;2.28;;
51174;SDS011;37240;50.104;20.010;2022-07-21T14:46:42;19.52;;;3.13;;
51174;SDS011;37240;50.104;20.010;2022-07-21T14:51:43;8.82;;;3.10;;
51174;SDS011;37240;50.104;20.010;2022-07-21T14:56:43;13.73;;;2.35;;
51174;SDS011;37240;50.104;20.010;2022-07-21T15:01:44;7.60;;;2.17;;
51174;SDS011;37240;50.104;20.010;2022-07-21T15:06:44;6.40;;;2.10;;
51174;SDS011;37240;50.104;20.010;2022-07-21T15:11:45;4.60;;;2.17;;
51174;SDS011;37240;50.104;20.010;2022-07-21T15:16:45;1.95;;;1.75;;
51174;SDS011;37240;50.104;20.010;2022-07-21T15:21:46;3.63;;;2.05;;
51174;SDS011;37240;50.104;20.010;2022-07-21T15:26:46;7.72;;;2.50;;
51174;SDS011;37240;50.104;20.010;2022-07-21T15:31:47;3.22;;;2.05;;
51174;SDS011;37240;50.104;20.010;2022-07-21T15:36:48;6.93;;;2.33;;
51174;SDS011;37240;50.104;20.010;2022-07-21T15:41:48;3.65;;;1.90;;
51174;SDS011;37240;50.104;20.010;2022-07-21T15:46:49;8.45;;;2.65;;
51174;SDS011;37240;50.104;20.010;2022-07-21T15:51:50;10.93;;;2.63;;
51174;SDS011;37240;50.104;20.010;2022-07-21T15:56:50;12.23;;;1.90;;
51174;SDS011;37240;50.104;20.010;2022-07-21T16:01:51;12.02;;;2.45;;
51174;SDS011;37240;50.104;20.010;2022-07-21T16:06:51;8.70;;;1.90;;
51174;SDS011;37240;50.104;20.010;2022-07-21T16:11:52;6.32;;;1.85;;
51174;SDS011;37240;50.104;20.010;2022-07-21T16:16:53;2.00;;;1.80;;
51174;SDS011;37240;50.104;20.010;2022-07-21T16:21:54;3.05;;;2.15;;
51174;SDS011;37240;50.104;20.010;2022-07-21T16:26:56;13.00;;;1.73;;
51174;SDS011;37240;50.104;20.010;2022-07-21T16:31:56;3.45;;;1.60;;
51174;SDS011;37240;50.104;20.010;2022-07-21T16:36:57;1.55;;;1.45;;
51174;SDS011;37240;50.104;20.010;2022-07-21T16:41:58;8.80;;;1.30;;
51174;SDS011;37240;50.104;20.010;2022-07-21T16:46:58;2.78;;;1.40;;
51174;SDS011;37240;50.104;20.010;2022-07-21T16:51:59;6.80;;;3.05;;
51174;SDS011;37240;50.104;20.010;2022-07-21T16:56:59;4.68;;;2.47;;
51174;SDS011;37240;50.104;20.010;2022-07-21T17:02:00;6.53;;;1.80;;
51174;SDS011;37240;50.104;20.010;2022-07-21T17:07:01;2.35;;;1.50;;
51174;SDS011;37240;50.104;20.010;2022-07-21T17:12:01;7.22;;;1.67;;
51174;SDS011;37240;50.104;20.010;2022-07-21T17:17:02;5.63;;;1.85;;
51174;SDS011;37240;50.104;20.010;2022-07-21T17:22:03;5.55;;;1.92;;
51174;SDS011;37240;50.104;20.010;2022-07-21T17:27:03;3.10;;;1.65;;
51174;SDS011;37240;50.104;20.010;2022-07-21T17:32:04;4.85;;;1.88;;
51174;SDS011;37240;50.104;20.010;2022-07-21T17:37:05;11.52;;;2.38;;
51174;SDS011;37240;50.104;20.010;2022-07-21T17:42:05;6.75;;;1.73;;
51174;SDS011;37240;50.104;20.010;2022-07-21T17:47:06;3.47;;;1.50;;
51174;SDS011;37240;50.104;20.010;2022-07-21T17:52:08;1.60;;;1.48;;
51174;SDS011;37240;50.104;20.010;2022-07-21T17:57:08;5.40;;;2.08;;
51174;SDS011;37240;50.104;20.010;2022-07-21T18:02:09;4.07;;;1.75;;
51174;SDS011;37240;50.104;20.010;2022-07-21T18:07:09;5.88;;;2.05;;
51174;SDS011;37240;50.104;20.010;2022-07-21T18:12:10;6.07;;;1.63;;
51174;SDS011;37240;50.104;20.010;2022-07-21T18:17:10;5.80;;;1.70;;
51174;SDS011;37240;50.104;20.010;2022-07-21T18:22:11;13.30;;;7.97;;
51174;SDS011;37240;50.104;20.010;2022-07-21T18:27:11;5.15;;;4.65;;
51174;SDS011;37240;50.104;20.010;2022-07-21T18:32:12;9.57;;;2.70;;
51174;SDS011;37240;50.104;20.010;2022-07-21T18:37:13;10.10;;;2.50;;
51174;SDS011;37240;50.104;20.010;2022-07-21T18:42:13;4.13;;;2.13;;
51174;SDS011;37240;50.104;20.010;2022-07-21T18:47:14;7.38;;;2.28;;
51174;SDS011;37240;50.104;20.010;2022-07-21T18:52:14;12.45;;;2.83;;
51174;SDS011;37240;50.104;20.010;2022-07-21T18:57:15;22.00;;;14.27;;
51174;SDS011;37240;50.104;20.010;2022-07-21T19:02:15;12.57;;;5.35;;
51174;SDS011;37240;50.104;20.010;2022-07-21T19:07:16;12.45;;;3.75;;
51174;SDS011;37240;50.104;20.010;2022-07-21T19:12:16;4.15;;;2.88;;
51174;SDS011;37240;50.104;20.010;2022-07-21T19:17:17;4.13;;;2.42;;
51174;SDS011;37240;50.104;20.010;2022-07-21T19:22:18;7.22;;;2.60;;
51174;SDS011;37240;50.104;20.010;2022-07-21T19:27:18;10.50;;;2.90;;
51174;SDS011;37240;50.104;20.010;2022-07-21T19:32:19;8.63;;;2.60;;
51174;SDS011;37240;50.104;20.010;2022-07-21T19:37:19;8.30;;;2.90;;
51174;SDS011;37240;50.104;20.010;2022-07-21T19:42:20;11.63;;;2.58;;
51174;SDS011;37240;50.104;20.010;2022-07-21T19:47:20;12.98;;;3.53;;
51174;SDS011;37240;50.104;20.010;2022-07-21T19:52:21;9.40;;;2.10;;
51174;SDS011;37240;50.104;20.010;2022-07-21T19:57:22;6.25;;;2.15;;
51174;SDS011;37240;50.104;20.010;2022-07-21T20:02:22;4.32;;;2.78;;
51174;SDS011;37240;50.104;20.010;2022-07-21T20:07:24;8.80;;;3.00;;
51174;SDS011;37240;50.104;20.010;2022-07-21T20:12:24;6.75;;;2.30;;
51174;SDS011;37240;50.104;20.010;2022-07-21T20:17:25;6.20;;;2.00;;
51174;SDS011;37240;50.104;20.010;2022-07-21T20:22:25;3.47;;;2.40;;
51174;SDS011;37240;50.104;20.010;2022-07-21T20:27:26;5.40;;;2.47;;
51174;SDS011;37240;50.104;20.010;2022-07-21T20:32:26;2.70;;;2.40;;
51174;SDS011;37240;50.104;20.010;2022-07-21T20:37:27;10.48;;;2.83;;
51174;SDS011;37240;50.104;20.010;2022-07-21T20:42:27;3.92;;;2.42;;
51174;SDS011;37240;50.104;20.010;2022-07-21T20:47:28;10.30;;;2.50;;
51174;SDS011;37240;50.104;20.010;2022-07-21T20:52:29;13.98;;;2.78;;
51174;SDS011;37240;50.104;20.010;2022-07-21T20:57:29;2.75;;;2.22;;
51174;SDS011;37240;50.104;20.010;2022-07-21T21:02:30;10.70;;;2.83;;
51174;SDS011;37240;50.104;20.010;2022-07-21T21:07:30;5.47;;;2.30;;
51174;SDS011;37240;50.104;20.010;2022-07-21T21:12:31;6.32;;;2.95;;
51174;SDS011;37240;50.104;20.010;2022-07-21T21:17:31;5.72;;;2.47;;
51174;SDS011;37240;50.104;20.010;2022-07-21T21:22:32;10.07;;;2.92;;
51174;SDS011;37240;50.104;20.010;2022-07-21T21:27:33;3.90;;;2.17;;
51174;SDS011;37240;50.104;20.010;2022-07-21T21:32:34;6.03;;;2.22;;
51174;SDS011;37240;50.104;20.010;2022-07-21T21:37:36;11.88;;;2.85;;
51174;SDS011;37240;50.104;20.010;2022-07-21T21:42:38;4.22;;;2.83;;
51174;SDS011;37240;50.104;20.010;2022-07-21T21:47:38;6.15;;;3.03;;
51174;SDS011;37240;50.104;20.010;2022-07-21T21:52:39;9.27;;;3.22;;
51174;SDS011;37240;50.104;20.010;2022-07-21T21:57:39;4.88;;;2.58;;
51174;SDS011;37240;50.104;20.010;2022-07-21T22:02:40;7.43;;;2.67;;
51174;SDS011;37240;50.104;20.010;2022-07-21T22:07:40;10.75;;;2.60;;
51174;SDS011;37240;50.104;20.010;2022-07-21T22:12:41;5.20;;;2.33;;
51174;SDS011;37240;50.104;20.010;2022-07-21T22:17:42;6.55;;;2.65;;
51174;SDS011;37240;50.104;20.010;2022-07-21T22:22:43;5.38;;;2.38;;
51174;SDS011;37240;50.104;20.010;2022-07-21T22:27:43;3.00;;;2.53;;
51174;SDS011;37240;50.104;20.010;2022-07-21T22:32:44;4.55;;;2.70;;
51174;SDS011;37240;50.104;20.010;2022-07-21T22:37:44;2.90;;;2.70;;
51174;SDS011;37240;50.104;20.010;2022-07-21T22:42:45;10.55;;;3.10;;
51174;SDS011;37240;50.104;20.010;2022-07-21T22:47:45;6.03;;;2.83;;
51174;SDS011;37240;50.104;20.010;2022-07-21T22:52:46;5.43;;;3.45;;
51174;SDS011;37240;50.104;20.010;2022-07-21T22:57:46;12.32;;;3.58;;
51174;SDS011;37240;50.104;20.010;2022-07-21T23:02:47;4.45;;;2.72;;
51174;SDS011;37240;50.104;20.010;2022-07-21T23:07:47;6.97;;;3.28;;
51174;SDS011;37240;50.104;20.010;2022-07-21T23:12:48;4.65;;;2.85;;
51174;SDS011;37240;50.104;20.010;2022-07-21T23:17:49;8.57;;;2.97;;
51174;SDS011;37240;50.104;20.010;2022-07-21T23:22:49;4.97;;;3.03;;
51174;SDS011;37240;50.104;20.010;2022-07-21T23:27:50;16.17;;;3.42;;
51174;SDS011;37240;50.104;20.010;2022-07-21T23:32:50;4.32;;;3.03;;
51174;SDS011;37240;50.104;20.010;2022-07-21T23:37:51;7.45;;;2.45;;
51174;SDS011;37240;50.104;20.010;2022-07-21T23:42:51;4.88;;;3.13;;
51174;SDS011;37240;50.104;20.010;2022-07-21T23:47:52;4.03;;;2.58;;
51174;SDS011;37240;50.104;20.010;2022-07-21T23:52:53;4.20;;;2.88;;
51174;SDS011;37240;50.104;20.010;2022-07-21T23:57:54;8.95;;;3.40;;
